Time;durP1;ratioP1;P1;durP2;ratioP2;P2;SDS_P1;SDS_P2;PMS_P1;PMS_P2;Temp;Humidity;BMP_temperature;BMP_pressure;BME280_temperature;BME280_humidity;BME280_pressure;Samples;Min_cycle;Max_cycle;Signal;HPM_P1;HPM_P2
2022/07/03 00:00:26;;;;;;;6.07;2.40;;;;;;;;;;5053593;28;20033;-81
2022/07/03 00:02:51;;;;;;;5.32;2.15;;;;;;;;;;5033828;28;20017;-82
2022/07/03 00:05:17;;;;;;;6.65;2.28;;;;;;;;;;5045421;28;20051;-82
2022/07/03 00:07:42;;;;;;;5.03;2.60;;;;;;;;;;5053417;28;20107;-80
2022/07/03 00:10:08;;;;;;;3.97;2.25;;;;;;;;;;5053408;28;20033;-81
2022/07/03 00:12:33;;;;;;;7.60;2.38;;;;;;;;;;5052789;28;20041;-81
2022/07/03 00:14:59;;;;;;;5.60;2.60;;;;;;;;;;5052375;28;20219;-80
2022/07/03 00:17:24;;;;;;;8.65;2.40;;;;;;;;;;5051862;28;20075;-81
2022/07/03 00:19:50;;;;;;;5.82;2.63;;;;;;;;;;5042920;28;20405;-81
2022/07/03 00:22:15;;;;;;;6.93;2.50;;;;;;;;;;5033886;28;20374;-81
2022/07/03 00:24:45;;;;;;;8.30;2.55;;;;;;;;;;5033101;28;20373;-80
2022/07/03 00:27:10;;;;;;;4.68;2.58;;;;;;;;;;5032665;28;20029;-80
2022/07/03 00:29:37;;;;;;;7.07;2.55;;;;;;;;;;5034698;28;20047;-80
2022/07/03 00:32:02;;;;;;;4.43;2.50;;;;;;;;;;5034248;28;20041;-80
2022/07/03 00:34:28;;;;;;;6.38;2.70;;;;;;;;;;5032929;28;20112;-81
2022/07/03 00:36:53;;;;;;;6.00;2.38;;;;;;;;;;5016358;28;20488;-81
2022/07/03 00:39:19;;;;;;;6.82;2.47;;;;;;;;;;5017467;28;20381;-81
2022/07/03 00:41:45;;;;;;;5.65;2.40;;;;;;;;;;5016975;28;20033;-81
2022/07/03 00:44:11;;;;;;;4.07;2.35;;;;;;;;;;5035450;28;20033;-81
2022/07/03 00:46:37;;;;;;;5.25;2.20;;;;;;;;;;5034500;28;20033;-81
2022/07/03 00:49:02;;;;;;;6.47;2.35;;;;;;;;;;5034424;28;20033;-80
2022/07/03 00:51:28;;;;;;;4.60;2.50;;;;;;;;;;5033375;28;20049;-81
2022/07/03 00:53:57;;;;;;;6.47;2.22;;;;;;;;;;5033713;28;20037;-82
2022/07/03 00:56:24;;;;;;;7.82;2.47;;;;;;;;;;5041689;28;20025;-81
2022/07/03 00:58:51;;;;;;;3.60;2.40;;;;;;;;;;5036156;28;20040;-81
2022/07/03 01:01:17;;;;;;;4.18;2.17;;;;;;;;;;5032862;28;20056;-81
2022/07/03 01:03:43;;;;;;;5.00;2.22;;;;;;;;;;5034833;28;20060;-80
2022/07/03 01:06:10;;;;;;;4.13;2.20;;;;;;;;;;5051303;28;20022;-80
2022/07/03 01:08:58;;;;;;;5.45;2.55;;;;;;;;;;5051813;28;20057;-80
2022/07/03 01:11:27;;;;;;;5.68;2.00;;;;;;;;;;5052257;28;20099;-80
2022/07/03 01:13:57;;;;;;;4.45;2.08;;;;;;;;;;5031584;28;20029;-80
2022/07/03 01:16:43;;;;;;;5.18;2.13;;;;;;;;;;5031681;28;20381;-81
2022/07/03 01:19:24;;;;;;;4.78;2.30;;;;;;;;;;5015663;28;20124;-81
2022/07/03 01:21:52;;;;;;;5.07;1.90;;;;;;;;;;5032658;28;20038;-80
2022/07/03 01:24:37;;;;;;;7.18;2.58;;;;;;;;;;5031607;28;20033;-81
2022/07/03 01:27:10;;;;;;;6.78;2.30;;;;;;;;;;5022074;28;20031;-80
2022/07/03 01:29:48;;;;;;;11.43;2.50;;;;;;;;;;5036395;28;20144;-81
2022/07/03 01:32:13;;;;;;;8.50;2.47;;;;;;;;;;5052265;28;20044;-81
2022/07/03 01:34:38;;;;;;;9.43;2.60;;;;;;;;;;5033686;28;20024;-81
2022/07/03 01:37:04;;;;;;;8.35;2.50;;;;;;;;;;5050795;28;20620;-81
2022/07/03 01:39:29;;;;;;;10.73;2.90;;;;;;;;;;5033214;28;20078;-81
2022/07/03 01:41:55;;;;;;;10.45;2.97;;;;;;;;;;5050793;28;20033;-82
2022/07/03 01:44:21;;;;;;;7.72;2.55;;;;;;;;;;5051125;28;20071;-81
2022/07/03 01:46:47;;;;;;;9.65;2.63;;;;;;;;;;5034285;28;20380;-81
2022/07/03 01:49:13;;;;;;;6.55;2.80;;;;;;;;;;5051315;28;20043;-81
2022/07/03 01:51:38;;;;;;;8.27;2.63;;;;;;;;;;5051894;28;20025;-81
2022/07/03 01:54:04;;;;;;;5.95;2.55;;;;;;;;;;5026206;28;20034;-81
2022/07/03 01:56:30;;;;;;;12.00;3.00;;;;;;;;;;5024981;28;20044;-81
2022/07/03 01:58:55;;;;;;;6.63;2.58;;;;;;;;;;5033382;28;20029;-80
2022/07/03 02:01:33;;;;;;;6.45;2.22;;;;;;;;;;5030954;28;20131;-81
2022/07/03 02:04:18;;;;;;;9.82;3.05;;;;;;;;;;5031455;28;20029;-81
2022/07/03 02:06:43;;;;;;;6.32;2.40;;;;;;;;;;5034963;28;20263;-81
2022/07/03 02:09:10;;;;;;;4.60;2.00;;;;;;;;;;5036458;28;20125;-80
2022/07/03 02:11:36;;;;;;;3.55;2.10;;;;;;;;;;5035569;28;20142;-81
2022/07/03 02:14:15;;;;;;;5.93;2.22;;;;;;;;;;5036538;28;20036;-82
2022/07/03 02:16:52;;;;;;;5.55;2.20;;;;;;;;;;5036898;28;20041;-81
2022/07/03 02:19:19;;;;;;;5.38;1.90;;;;;;;;;;5036900;28;20033;-81
2022/07/03 02:21:48;;;;;;;6.65;2.20;;;;;;;;;;5037454;28;20729;-82
2022/07/03 02:24:20;;;;;;;8.27;3.25;;;;;;;;;;5036444;28;20045;-81
2022/07/03 02:26:52;;;;;;;6.57;2.10;;;;;;;;;;5036832;28;20034;-81
2022/07/03 02:29:17;;;;;;;4.13;2.30;;;;;;;;;;5037905;28;20037;-80
2022/07/03 02:31:44;;;;;;;3.75;2.08;;;;;;;;;;5034532;28;20037;-81
2022/07/03 02:34:13;;;;;;;4.60;1.88;;;;;;;;;;5036439;28;20045;-81
2022/07/03 02:36:39;;;;;;;7.75;2.10;;;;;;;;;;5036818;28;20064;-81
2022/07/03 02:39:04;;;;;;;6.68;2.05;;;;;;;;;;5036100;28;20057;-81
2022/07/03 02:41:50;;;;;;;4.43;1.90;;;;;;;;;;5034981;28;20112;-81
2022/07/03 02:44:19;;;;;;;6.18;2.17;;;;;;;;;;5036006;28;20045;-81
2022/07/03 02:47:03;;;;;;;4.82;1.98;;;;;;;;;;5035195;28;20048;-81
2022/07/03 02:49:43;;;;;;;8.13;1.98;;;;;;;;;;5035482;28;20070;-82
2022/07/03 02:52:10;;;;;;;4.63;1.92;;;;;;;;;;5036124;28;20041;-81
2022/07/03 02:54:42;;;;;;;3.72;2.20;;;;;;;;;;5033855;28;20384;-81
2022/07/03 02:57:08;;;;;;;5.90;1.88;;;;;;;;;;5034931;28;20057;-80
2022/07/03 02:59:51;;;;;;;5.78;2.13;;;;;;;;;;5014070;28;20396;-80
2022/07/03 03:02:17;;;;;;;5.38;2.28;;;;;;;;;;5070617;28;20033;-80
2022/07/03 03:04:44;;;;;;;10.77;2.03;;;;;;;;;;5055027;28;20021;-79
2022/07/03 03:07:13;;;;;;;4.93;2.20;;;;;;;;;;5047621;28;20150;-80
2022/07/03 03:09:42;;;;;;;4.68;2.10;;;;;;;;;;5045595;28;20509;-81
2022/07/03 03:12:08;;;;;;;4.35;2.15;;;;;;;;;;5035319;28;20025;-81
2022/07/03 03:14:40;;;;;;;7.93;2.13;;;;;;;;;;5034846;28;20021;-80
2022/07/03 03:17:06;;;;;;;4.60;2.17;;;;;;;;;;5022282;28;20036;-81
2022/07/03 03:19:32;;;;;;;4.88;2.33;;;;;;;;;;5033696;28;20021;-81
2022/07/03 03:22:03;;;;;;;7.28;2.60;;;;;;;;;;5035302;28;20050;-80
2022/07/03 03:24:28;;;;;;;6.25;2.25;;;;;;;;;;5034059;28;20052;-80
2022/07/03 03:26:54;;;;;;;5.82;2.50;;;;;;;;;;5017038;28;20116;-81
2022/07/03 03:29:19;;;;;;;7.50;2.30;;;;;;;;;;5035637;28;20025;-81
2022/07/03 03:31:45;;;;;;;6.15;2.40;;;;;;;;;;5034951;28;20389;-81
2022/07/03 03:34:10;;;;;;;6.00;2.33;;;;;;;;;;5032976;28;20465;-81
2022/07/03 03:36:35;;;;;;;3.47;1.98;;;;;;;;;;5033404;28;20384;-81
2022/07/03 03:39:01;;;;;;;4.90;2.22;;;;;;;;;;5047000;28;20032;-81
2022/07/03 03:41:26;;;;;;;4.22;2.03;;;;;;;;;;5033371;28;20111;-81
2022/07/03 03:43:52;;;;;;;4.97;2.47;;;;;;;;;;5048449;28;20044;-81
2022/07/03 03:46:17;;;;;;;4.35;2.40;;;;;;;;;;5046850;28;20033;-81
2022/07/03 03:48:43;;;;;;;4.40;2.00;;;;;;;;;;5034060;28;20041;-81
2022/07/03 03:51:08;;;;;;;5.28;2.10;;;;;;;;;;5032863;28;20037;-82
2022/07/03 03:53:34;;;;;;;7.70;2.25;;;;;;;;;;5033876;28;20040;-80
2022/07/03 03:56:00;;;;;;;6.68;2.35;;;;;;;;;;5033513;28;20061;-81
2022/07/03 03:58:27;;;;;;;6.80;2.30;;;;;;;;;;5028067;28;20038;-81
2022/07/03 04:00:53;;;;;;;4.78;2.38;;;;;;;;;;5053577;28;20043;-81
2022/07/03 04:03:19;;;;;;;5.22;2.35;;;;;;;;;;5052388;28;20118;-81
2022/07/03 04:05:44;;;;;;;4.32;2.38;;;;;;;;;;5035285;28;20079;-82
2022/07/03 04:08:10;;;;;;;5.35;2.40;;;;;;;;;;5050764;28;20068;-81
2022/07/03 04:10:35;;;;;;;5.47;2.42;;;;;;;;;;5052311;28;20044;-81
2022/07/03 04:13:01;;;;;;;5.95;2.30;;;;;;;;;;5052289;28;20028;-81
2022/07/03 04:15:26;;;;;;;7.75;2.55;;;;;;;;;;5039903;28;20024;-80
2022/07/03 04:17:52;;;;;;;4.82;2.20;;;;;;;;;;5052125;28;20040;-81
2022/07/03 04:20:17;;;;;;;4.28;2.30;;;;;;;;;;5053505;28;20029;-81
2022/07/03 04:22:43;;;;;;;6.63;2.53;;;;;;;;;;5052404;28;20037;-81
2022/07/03 04:25:08;;;;;;;7.57;2.60;;;;;;;;;;5035364;28;20016;-82
2022/07/03 04:27:34;;;;;;;6.55;3.15;;;;;;;;;;5051013;28;20218;-81
2022/07/03 04:29:59;;;;;;;5.00;2.30;;;;;;;;;;5050087;28;20101;-82
2022/07/03 04:32:25;;;;;;;5.20;2.33;;;;;;;;;;5050324;28;20040;-81
2022/07/03 04:34:50;;;;;;;5.50;2.47;;;;;;;;;;5050592;28;20028;-82
2022/07/03 04:37:15;;;;;;;5.22;2.40;;;;;;;;;;5049674;28;20467;-81
2022/07/03 04:39:41;;;;;;;4.47;2.25;;;;;;;;;;5051880;28;20033;-81
2022/07/03 04:42:06;;;;;;;4.38;2.10;;;;;;;;;;5051974;28;20087;-80
2022/07/03 04:44:32;;;;;;;6.10;2.40;;;;;;;;;;5051455;28;20105;-81
2022/07/03 04:46:57;;;;;;;4.68;2.40;;;;;;;;;;5052185;28;20541;-80
2022/07/03 04:49:23;;;;;;;5.63;2.00;;;;;;;;;;5052116;28;20112;-83
2022/07/03 04:51:48;;;;;;;3.80;2.28;;;;;;;;;;5051638;28;20496;-82
2022/07/03 04:54:14;;;;;;;4.47;1.90;;;;;;;;;;5044042;28;20036;-80
2022/07/03 04:56:39;;;;;;;6.78;2.47;;;;;;;;;;5031695;28;20040;-79
2022/07/03 04:59:05;;;;;;;12.38;2.88;;;;;;;;;;5019865;28;20445;-77
2022/07/03 05:01:30;;;;;;;6.05;2.17;;;;;;;;;;5044337;28;20091;-78
2022/07/03 05:03:55;;;;;;;7.63;2.08;;;;;;;;;;5050107;28;20057;-78
2022/07/03 05:06:21;;;;;;;8.55;2.05;;;;;;;;;;5051020;28;20079;-80
2022/07/03 05:08:47;;;;;;;4.80;2.03;;;;;;;;;;5049666;28;20476;-80
2022/07/03 05:11:12;;;;;;;3.90;2.20;;;;;;;;;;5051591;28;20034;-80
2022/07/03 05:13:37;;;;;;;5.40;1.92;;;;;;;;;;5032972;28;20029;-80
2022/07/03 05:16:03;;;;;;;9.90;2.35;;;;;;;;;;5033079;28;20116;-80
2022/07/03 05:18:29;;;;;;;4.57;2.13;;;;;;;;;;5034283;28;20075;-80
2022/07/03 05:20:54;;;;;;;6.05;2.20;;;;;;;;;;5032843;28;20045;-80
2022/07/03 05:23:19;;;;;;;5.40;2.33;;;;;;;;;;5030883;28;20497;-80
2022/07/03 05:25:45;;;;;;;5.35;2.10;;;;;;;;;;5033699;28;20121;-80
2022/07/03 05:28:10;;;;;;;4.70;2.30;;;;;;;;;;5031250;28;20021;-81
2022/07/03 05:30:36;;;;;;;6.55;1.95;;;;;;;;;;5032041;28;20041;-81
2022/07/03 05:33:01;;;;;;;4.72;1.90;;;;;;;;;;5034080;28;20443;-79
2022/07/03 05:35:27;;;;;;;4.22;2.10;;;;;;;;;;5033369;28;20053;-81
2022/07/03 05:37:52;;;;;;;3.58;2.10;;;;;;;;;;5030534;28;20044;-80
2022/07/03 05:40:18;;;;;;;8.13;2.20;;;;;;;;;;5026425;28;20041;-80
2022/07/03 05:42:43;;;;;;;4.90;2.20;;;;;;;;;;5030483;28;20084;-79
2022/07/03 05:45:09;;;;;;;7.97;2.38;;;;;;;;;;5032242;28;20064;-80
2022/07/03 05:47:35;;;;;;;3.47;1.90;;;;;;;;;;5033822;28;20037;-79
2022/07/03 05:50:00;;;;;;;4.90;2.47;;;;;;;;;;5030170;28;20081;-79
2022/07/03 05:52:25;;;;;;;3.60;2.00;;;;;;;;;;5029789;28;20029;-78
2022/07/03 05:54:51;;;;;;;4.35;1.90;;;;;;;;;;5032813;28;20026;-79
2022/07/03 05:57:16;;;;;;;5.28;2.35;;;;;;;;;;5048279;28;20075;-79
2022/07/03 05:59:42;;;;;;;7.45;2.20;;;;;;;;;;5040418;28;20041;-79
2022/07/03 06:02:08;;;;;;;7.32;2.60;;;;;;;;;;5027623;28;20036;-80
2022/07/03 06:04:33;;;;;;;5.28;2.60;;;;;;;;;;5030893;28;20025;-80
2022/07/03 06:06:58;;;;;;;7.15;2.83;;;;;;;;;;5035061;28;20098;-79
2022/07/03 06:09:24;;;;;;;8.02;2.45;;;;;;;;;;5051067;28;20041;-78
2022/07/03 06:11:49;;;;;;;6.32;2.13;;;;;;;;;;5037147;28;20025;-80
2022/07/03 06:14:15;;;;;;;5.65;2.20;;;;;;;;;;5028811;28;20060;-78
2022/07/03 06:16:40;;;;;;;5.25;2.15;;;;;;;;;;5027997;28;20025;-79
2022/07/03 06:19:06;;;;;;;6.45;2.00;;;;;;;;;;5031366;28;20483;-80
2022/07/03 06:21:32;;;;;;;5.28;2.30;;;;;;;;;;5032557;28;20468;-80
2022/07/03 06:23:57;;;;;;;9.32;2.90;;;;;;;;;;5044387;28;20041;-80
2022/07/03 06:26:23;;;;;;;3.17;1.73;;;;;;;;;;5028215;28;20032;-80
2022/07/03 06:28:48;;;;;;;5.95;2.35;;;;;;;;;;5033233;28;20041;-79
2022/07/03 06:31:14;;;;;;;4.18;2.40;;;;;;;;;;5036532;28;20325;-80
2022/07/03 06:33:39;;;;;;;8.70;2.33;;;;;;;;;;5032750;28;20038;-80
2022/07/03 06:36:05;;;;;;;9.52;2.45;;;;;;;;;;5038757;28;20033;-81
2022/07/03 06:38:30;;;;;;;7.50;2.60;;;;;;;;;;5021440;28;20060;-81
2022/07/03 06:40:56;;;;;;;5.05;2.13;;;;;;;;;;5039326;28;20025;-80
2022/07/03 06:43:21;;;;;;;6.70;2.13;;;;;;;;;;5037133;28;20045;-79
2022/07/03 06:45:47;;;;;;;9.00;2.00;;;;;;;;;;5040682;28;20434;-81
2022/07/03 06:48:12;;;;;;;4.20;2.13;;;;;;;;;;5037045;28;20487;-79
2022/07/03 06:50:38;;;;;;;5.55;2.15;;;;;;;;;;5039198;28;20048;-80
2022/07/03 06:53:03;;;;;;;5.45;2.00;;;;;;;;;;5041512;28;20040;-79
2022/07/03 06:55:28;;;;;;;5.00;2.38;;;;;;;;;;5037648;28;20400;-80
2022/07/03 06:57:54;;;;;;;5.13;2.42;;;;;;;;;;5055537;28;20056;-80
2022/07/03 07:00:19;;;;;;;7.43;2.20;;;;;;;;;;5036894;28;20140;-80
2022/07/03 07:02:45;;;;;;;4.45;2.30;;;;;;;;;;5020784;28;20032;-80
2022/07/03 07:05:12;;;;;;;5.88;2.35;;;;;;;;;;5052955;28;20025;-81
2022/07/03 07:07:37;;;;;;;4.85;2.45;;;;;;;;;;5054371;28;20055;-81
2022/07/03 07:10:03;;;;;;;6.55;2.30;;;;;;;;;;5053646;28;20040;-81
2022/07/03 07:12:28;;;;;;;8.63;2.42;;;;;;;;;;5036535;28;20025;-84
2022/07/03 07:14:54;;;;;;;4.80;1.95;;;;;;;;;;5085579;28;20029;-80
2022/07/03 07:17:21;;;;;;;11.27;2.30;;;;;;;;;;5052838;28;20029;-82
2022/07/03 07:19:46;;;;;;;5.35;2.30;;;;;;;;;;5052341;28;20396;-81
2022/07/03 07:22:12;;;;;;;5.78;2.00;;;;;;;;;;5054226;28;20024;-79
2022/07/03 07:24:37;;;;;;;5.18;2.30;;;;;;;;;;5053047;28;20032;-79
2022/07/03 07:27:03;;;;;;;6.85;2.13;;;;;;;;;;5052672;28;20040;-79
2022/07/03 07:29:28;;;;;;;5.72;2.63;;;;;;;;;;5051614;28;20021;-79
2022/07/03 07:31:54;;;;;;;7.63;2.35;;;;;;;;;;5052176;28;20128;-80
2022/07/03 07:34:19;;;;;;;8.20;2.70;;;;;;;;;;5050307;28;20040;-79
2022/07/03 07:36:44;;;;;;;5.32;2.53;;;;;;;;;;5051740;28;20543;-80
2022/07/03 07:39:10;;;;;;;8.38;2.33;;;;;;;;;;5050032;28;20027;-79
2022/07/03 07:41:36;;;;;;;5.90;2.80;;;;;;;;;;5051267;28;20119;-80
2022/07/03 07:44:01;;;;;;;4.10;2.30;;;;;;;;;;5049929;28;20056;-81
2022/07/03 07:46:27;;;;;;;10.32;2.47;;;;;;;;;;5052393;28;20491;-80
2022/07/03 07:48:52;;;;;;;5.88;2.30;;;;;;;;;;5049623;28;20439;-79
2022/07/03 07:51:18;;;;;;;5.65;2.72;;;;;;;;;;5051197;28;20029;-79
2022/07/03 07:53:44;;;;;;;4.43;2.40;;;;;;;;;;5048690;28;20036;-80
2022/07/03 07:56:09;;;;;;;14.85;2.60;;;;;;;;;;5023955;28;20086;-80
2022/07/03 07:58:35;;;;;;;4.50;2.10;;;;;;;;;;5051634;28;20033;-83
2022/07/03 08:06:29;;;;;;;4.50;2.67;;;;;;;;;;5033413;28;20480;-80
2022/07/03 08:08:54;;;;;;;5.57;2.70;;;;;;;;;;5033837;28;20072;-79
2022/07/03 08:11:20;;;;;;;5.05;2.88;;;;;;;;;;5046034;28;20060;-78
2022/07/03 08:13:45;;;;;;;5.82;2.90;;;;;;;;;;5045456;28;20044;-80
2022/07/03 08:16:12;;;;;;;6.28;2.75;;;;;;;;;;5032215;28;20038;-79
2022/07/03 08:18:37;;;;;;;4.53;2.65;;;;;;;;;;5033037;28;20105;-79
2022/07/03 08:21:02;;;;;;;4.35;2.97;;;;;;;;;;5033637;28;20179;-80
2022/07/03 08:23:28;;;;;;;5.45;3.00;;;;;;;;;;5033536;28;20112;-79
2022/07/03 08:25:53;;;;;;;7.70;3.10;;;;;;;;;;5033372;28;20029;-80
2022/07/03 08:28:19;;;;;;;11.00;3.35;;;;;;;;;;5032212;28;20025;-78
2022/07/03 08:30:45;;;;;;;7.63;3.47;;;;;;;;;;5032522;28;20045;-79
2022/07/03 08:33:10;;;;;;;7.28;3.65;;;;;;;;;;5031862;28;20018;-83
2022/07/03 08:35:35;;;;;;;4.78;3.40;;;;;;;;;;5027311;28;20098;-81
2022/07/03 08:38:01;;;;;;;7.32;3.40;;;;;;;;;;5034685;28;20025;-81
2022/07/03 08:40:27;;;;;;;6.60;3.70;;;;;;;;;;5034288;28;20839;-81
2022/07/03 08:42:56;;;;;;;7.80;3.70;;;;;;;;;;5033997;28;20557;-80
2022/07/03 08:45:22;;;;;;;7.93;3.70;;;;;;;;;;5050750;28;20029;-80
2022/07/03 08:47:48;;;;;;;4.88;3.53;;;;;;;;;;5051614;28;20059;-80
2022/07/03 08:50:14;;;;;;;8.88;3.60;;;;;;;;;;5052032;28;20044;-80
2022/07/03 08:52:40;;;;;;;9.07;3.28;;;;;;;;;;5033276;28;20116;-80
2022/07/03 08:55:06;;;;;;;6.90;3.60;;;;;;;;;;5037634;28;20124;-80
2022/07/03 08:57:34;;;;;;;6.30;3.50;;;;;;;;;;5049805;28;20078;-79
2022/07/03 09:00:00;;;;;;;7.35;4.07;;;;;;;;;;5018559;28;20033;-79
2022/07/03 09:02:26;;;;;;;3.90;3.03;;;;;;;;;;5024568;28;20108;-81
2022/07/03 09:04:51;;;;;;;4.65;3.55;;;;;;;;;;5008285;28;20124;-80
2022/07/03 09:07:20;;;;;;;6.07;3.17;;;;;;;;;;5030672;28;20107;-81
2022/07/03 09:09:46;;;;;;;6.00;3.20;;;;;;;;;;5032581;28;20041;-80
2022/07/03 09:12:12;;;;;;;5.68;3.17;;;;;;;;;;5008591;28;20033;-81
2022/07/03 09:14:38;;;;;;;9.65;3.38;;;;;;;;;;5033388;28;20035;-80
2022/07/03 09:17:05;;;;;;;3.88;3.08;;;;;;;;;;5044701;28;20104;-80
2022/07/03 09:19:45;;;;;;;7.22;3.70;;;;;;;;;;5026757;28;20045;-79
2022/07/03 09:22:29;;;;;;;7.22;4.00;;;;;;;;;;5036692;28;20068;-79
2022/07/03 09:25:08;;;;;;;4.85;3.35;;;;;;;;;;5034184;28;20037;-79
2022/07/03 09:27:34;;;;;;;7.50;3.50;;;;;;;;;;5032407;28;20081;-80
2022/07/03 09:30:00;;;;;;;8.38;3.80;;;;;;;;;;5032562;28;20496;-79
2022/07/03 09:32:46;;;;;;;5.65;4.00;;;;;;;;;;5031606;28;20030;-80
2022/07/03 09:35:21;;;;;;;7.93;4.22;;;;;;;;;;5043068;28;20069;-81
2022/07/03 09:37:47;;;;;;;6.82;3.67;;;;;;;;;;5033020;28;20031;-79
2022/07/03 09:40:12;;;;;;;5.22;3.30;;;;;;;;;;4999457;28;20462;-81
2022/07/03 09:42:38;;;;;;;6.25;3.65;;;;;;;;;;5029844;28;20515;-82
2022/07/03 09:45:04;;;;;;;7.57;4.10;;;;;;;;;;5030162;28;20112;-77
2022/07/03 09:47:29;;;;;;;7.70;4.72;;;;;;;;;;5029821;28;20032;-80
2022/07/03 09:49:55;;;;;;;6.78;4.00;;;;;;;;;;5030739;28;20116;-80
2022/07/03 09:52:31;;;;;;;7.68;4.60;;;;;;;;;;5016292;28;20029;-80
2022/07/03 09:55:11;;;;;;;6.93;4.10;;;;;;;;;;4997447;28;20040;-80
2022/07/03 09:57:37;;;;;;;6.30;4.03;;;;;;;;;;5004959;28;20030;-80
2022/07/03 10:00:11;;;;;;;6.35;4.20;;;;;;;;;;5015466;28;20083;-81
2022/07/03 10:02:51;;;;;;;5.18;3.80;;;;;;;;;;5059729;28;20080;-81
2022/07/03 10:05:16;;;;;;;5.30;3.90;;;;;;;;;;5031104;28;20033;-81
2022/07/03 10:07:51;;;;;;;6.25;3.80;;;;;;;;;;5016373;28;20134;-80
2022/07/03 10:10:21;;;;;;;6.70;3.88;;;;;;;;;;4996512;28;20044;-81
2022/07/03 10:12:47;;;;;;;4.25;3.45;;;;;;;;;;5022596;28;20038;-80
2022/07/03 10:15:12;;;;;;;7.82;3.50;;;;;;;;;;4998612;28;20026;-81
2022/07/03 10:17:38;;;;;;;6.90;3.90;;;;;;;;;;5031393;28;20017;-80
2022/07/03 10:20:04;;;;;;;4.82;3.63;;;;;;;;;;5033698;28;20032;-81
2022/07/03 10:22:29;;;;;;;5.63;3.65;;;;;;;;;;5030396;28;20033;-81
2022/07/03 10:24:54;;;;;;;7.60;4.00;;;;;;;;;;5013655;28;20037;-80
2022/07/03 10:27:20;;;;;;;5.65;3.80;;;;;;;;;;5012239;28;20025;-79
2022/07/03 10:29:45;;;;;;;5.15;3.70;;;;;;;;;;5048280;28;20068;-80
2022/07/03 10:32:11;;;;;;;6.13;3.42;;;;;;;;;;5028268;28;20021;-81
2022/07/03 10:34:36;;;;;;;4.72;3.53;;;;;;;;;;5037842;28;20431;-81
2022/07/03 10:37:02;;;;;;;7.00;3.70;;;;;;;;;;5035258;28;20446;-79
2022/07/03 10:39:43;;;;;;;8.48;4.35;;;;;;;;;;5035437;28;20432;-81
2022/07/03 10:45:07;;;;;;;4.72;3.55;;;;;;;;;;5034373;28;20352;-80
2022/07/03 10:47:48;;;;;;;5.95;3.92;;;;;;;;;;5035545;28;20038;-81
2022/07/03 10:50:14;;;;;;;5.70;3.60;;;;;;;;;;5035148;28;20033;-80
2022/07/03 10:52:40;;;;;;;6.60;3.80;;;;;;;;;;5018594;28;20056;-80
2022/07/03 10:55:06;;;;;;;5.75;3.45;;;;;;;;;;5033270;28;20464;-81
2022/07/03 10:57:32;;;;;;;5.82;3.83;;;;;;;;;;5038546;28;20116;-80
2022/07/03 10:59:58;;;;;;;6.68;4.00;;;;;;;;;;5033113;28;20031;-79
2022/07/03 11:02:23;;;;;;;5.38;3.80;;;;;;;;;;5032354;28;20017;-80
2022/07/03 11:04:58;;;;;;;4.70;3.80;;;;;;;;;;5035073;28;20159;-80
2022/07/03 11:07:24;;;;;;;5.95;3.72;;;;;;;;;;5036358;28;20412;-80
2022/07/03 11:10:08;;;;;;;6.25;3.50;;;;;;;;;;5035520;28;20034;-80
2022/07/03 11:13:03;;;;;;;4.10;3.70;;;;;;;;;;5032874;28;20116;-80
2022/07/03 11:15:47;;;;;;;5.25;3.60;;;;;;;;;;5028734;28;20038;-81
2022/07/03 11:18:14;;;;;;;4.63;3.58;;;;;;;;;;5037691;28;20392;-80
2022/07/03 11:20:39;;;;;;;6.22;4.07;;;;;;;;;;5035202;28;20498;-80
2022/07/03 11:23:23;;;;;;;5.85;3.40;;;;;;;;;;5030857;28;20045;-81
2022/07/03 11:25:49;;;;;;;4.13;3.50;;;;;;;;;;5033742;28;20033;-81
2022/07/03 11:28:33;;;;;;;4.53;3.50;;;;;;;;;;5036906;28;20032;-80
2022/07/03 11:31:11;;;;;;;4.00;3.38;;;;;;;;;;5034723;28;20038;-81
2022/07/03 11:33:45;;;;;;;10.10;3.75;;;;;;;;;;5034468;28;20021;-80
2022/07/03 11:36:17;;;;;;;4.25;3.53;;;;;;;;;;5034727;28;20048;-80
2022/07/03 11:38:46;;;;;;;5.35;3.22;;;;;;;;;;5034709;28;20033;-81
2022/07/03 11:41:13;;;;;;;4.28;3.40;;;;;;;;;;5034252;28;20484;-80
2022/07/03 11:43:46;;;;;;;4.63;3.30;;;;;;;;;;5035603;28;20041;-80
2022/07/03 11:46:16;;;;;;;5.03;3.50;;;;;;;;;;5034347;28;20507;-80
2022/07/03 11:48:42;;;;;;;5.93;3.55;;;;;;;;;;5032377;28;20045;-80
2022/07/03 11:51:07;;;;;;;5.20;3.55;;;;;;;;;;5033760;28;20188;-79
2022/07/03 11:53:34;;;;;;;6.70;3.58;;;;;;;;;;5016008;28;20083;-80
2022/07/03 11:56:00;;;;;;;6.13;3.78;;;;;;;;;;5038891;28;20028;-80
2022/07/03 11:58:43;;;;;;;4.60;3.20;;;;;;;;;;5039761;28;20060;-79
2022/07/03 12:01:09;;;;;;;4.72;3.17;;;;;;;;;;5041066;28;20059;-80
2022/07/03 12:03:35;;;;;;;3.63;3.33;;;;;;;;;;5036909;28;20030;-79
2022/07/03 12:06:00;;;;;;;4.93;3.35;;;;;;;;;;5041702;28;20052;-80
2022/07/03 12:08:30;;;;;;;3.90;3.50;;;;;;;;;;5051649;28;20068;-80
2022/07/03 12:10:59;;;;;;;4.15;3.38;;;;;;;;;;5052149;28;20039;-80
2022/07/03 12:13:30;;;;;;;3.63;3.30;;;;;;;;;;5051121;28;20502;-81
2022/07/03 12:16:00;;;;;;;7.15;3.17;;;;;;;;;;5051907;28;20575;-79
2022/07/03 12:18:26;;;;;;;4.03;3.30;;;;;;;;;;5051894;28;20431;-81
2022/07/03 12:20:51;;;;;;;4.20;3.33;;;;;;;;;;5052578;28;20029;-80
2022/07/03 12:23:16;;;;;;;3.90;3.50;;;;;;;;;;5050488;28;20083;-80
2022/07/03 12:25:42;;;;;;;6.38;3.30;;;;;;;;;;5050832;28;20056;-81
2022/07/03 12:28:11;;;;;;;3.92;3.30;;;;;;;;;;5050234;28;20037;-80
2022/07/03 12:30:36;;;;;;;5.07;3.25;;;;;;;;;;5033982;28;20036;-80
2022/07/03 12:33:02;;;;;;;7.07;3.50;;;;;;;;;;5051092;28;20025;-80
2022/07/03 12:35:27;;;;;;;4.53;3.47;;;;;;;;;;5052861;28;20074;-80
2022/07/03 12:37:53;;;;;;;4.78;3.33;;;;;;;;;;5050982;28;20074;-80
2022/07/03 12:40:19;;;;;;;4.75;3.38;;;;;;;;;;5050770;28;20033;-80
2022/07/03 12:42:45;;;;;;;5.70;3.50;;;;;;;;;;5032073;28;20072;-80
2022/07/03 12:45:11;;;;;;;4.60;3.60;;;;;;;;;;5050435;28;20460;-79
2022/07/03 12:47:36;;;;;;;4.65;3.60;;;;;;;;;;5050200;28;20035;-81
2022/07/03 12:50:03;;;;;;;7.72;3.42;;;;;;;;;;5051519;28;20035;-81
2022/07/03 12:52:28;;;;;;;4.43;3.45;;;;;;;;;;5049903;28;20025;-80
2022/07/03 12:54:54;;;;;;;4.68;3.40;;;;;;;;;;5040978;28;20606;-81
2022/07/03 13:00:11;;;;;;;3.90;3.43;;;;;;;;;;5038359;28;20536;-80
2022/07/03 13:02:40;;;;;;;6.53;3.47;;;;;;;;;;5032464;28;20044;-81
2022/07/03 13:05:18;;;;;;;4.53;3.20;;;;;;;;;;5032847;28;20055;-81
2022/07/03 13:07:45;;;;;;;6.95;3.70;;;;;;;;;;5032752;28;20076;-81
2022/07/03 13:10:10;;;;;;;6.30;3.75;;;;;;;;;;5031504;28;20021;-81
2022/07/03 13:12:46;;;;;;;5.45;3.70;;;;;;;;;;5032708;28;20028;-81
2022/07/03 13:15:11;;;;;;;5.05;3.45;;;;;;;;;;5036602;28;20856;-79
2022/07/03 13:17:50;;;;;;;5.32;3.72;;;;;;;;;;5039398;28;20116;-81
2022/07/03 13:20:16;;;;;;;6.25;3.42;;;;;;;;;;5052039;28;20037;-81
2022/07/03 13:22:41;;;;;;;3.90;3.50;;;;;;;;;;5032726;28;20120;-81
2022/07/03 13:25:07;;;;;;;5.75;3.60;;;;;;;;;;5030966;28;20034;-81
2022/07/03 13:27:32;;;;;;;7.07;3.58;;;;;;;;;;5031032;28;20025;-80
2022/07/03 13:29:58;;;;;;;4.53;3.42;;;;;;;;;;5031362;28;20082;-80
2022/07/03 13:32:23;;;;;;;6.65;3.58;;;;;;;;;;5032225;28;20029;-81
2022/07/03 13:34:48;;;;;;;8.88;3.53;;;;;;;;;;5064395;28;20036;-82
2022/07/03 13:37:14;;;;;;;9.65;3.75;;;;;;;;;;5032681;28;20074;-79
2022/07/03 13:39:39;;;;;;;7.72;3.88;;;;;;;;;;5030602;28;20033;-80
2022/07/03 13:42:05;;;;;;;5.47;3.70;;;;;;;;;;5032301;28;20055;-80
2022/07/03 13:44:31;;;;;;;9.57;4.32;;;;;;;;;;5031256;28;20536;-80
2022/07/03 13:46:57;;;;;;;6.43;3.40;;;;;;;;;;5030440;28;20033;-82
2022/07/03 13:49:22;;;;;;;4.90;3.55;;;;;;;;;;5032181;28;20033;-84
2022/07/03 13:51:48;;;;;;;6.80;3.80;;;;;;;;;;5033375;28;20437;-81
2022/07/03 13:54:13;;;;;;;4.00;3.60;;;;;;;;;;5033264;28;20116;-80
2022/07/03 13:56:39;;;;;;;5.63;3.85;;;;;;;;;;5043224;28;20024;-81
2022/07/03 13:59:04;;;;;;;6.93;3.67;;;;;;;;;;5039787;28;20044;-82
2022/07/03 14:01:30;;;;;;;3.78;3.30;;;;;;;;;;5052707;28;20031;-82
2022/07/03 14:03:56;;;;;;;4.55;3.78;;;;;;;;;;5056095;28;20033;-83
2022/07/03 14:06:21;;;;;;;5.70;3.60;;;;;;;;;;5056329;28;20041;-83
2022/07/03 14:08:47;;;;;;;5.50;3.80;;;;;;;;;;5054447;28;20037;-84
2022/07/03 14:11:12;;;;;;;4.07;3.30;;;;;;;;;;5056063;28;20044;-84
2022/07/03 14:13:38;;;;;;;4.15;3.70;;;;;;;;;;5051009;28;20391;-82
2022/07/03 14:16:03;;;;;;;6.32;3.95;;;;;;;;;;5030103;28;20111;-82
2022/07/03 14:18:29;;;;;;;3.83;3.30;;;;;;;;;;5051080;28;20399;-81
2022/07/03 14:20:54;;;;;;;4.00;3.60;;;;;;;;;;5019192;28;20052;-81
2022/07/03 14:23:20;;;;;;;6.80;4.05;;;;;;;;;;5037429;28;20110;-82
2022/07/03 14:25:45;;;;;;;4.22;3.63;;;;;;;;;;5016457;28;20041;-81
2022/07/03 14:33:40;;;;;;;4.07;3.67;;;;;;;;;;5037540;28;20472;-81
2022/07/03 14:36:05;;;;;;;5.40;3.70;;;;;;;;;;5019957;28;20025;-84
2022/07/03 14:38:31;;;;;;;4.60;3.80;;;;;;;;;;5035610;28;20040;-82
2022/07/03 14:40:56;;;;;;;5.30;3.55;;;;;;;;;;5038290;28;20016;-80
2022/07/03 14:43:22;;;;;;;7.68;3.60;;;;;;;;;;5020447;28;20116;-84
2022/07/03 14:45:47;;;;;;;3.65;3.20;;;;;;;;;;5036422;28;20024;-84
2022/07/03 14:48:13;;;;;;;4.10;3.63;;;;;;;;;;5015768;28;20040;-81
2022/07/03 14:50:38;;;;;;;5.63;3.67;;;;;;;;;;5034831;28;20059;-81
2022/07/03 14:53:08;;;;;;;4.78;3.35;;;;;;;;;;5002631;28;20037;-81
2022/07/03 14:55:35;;;;;;;4.20;3.78;;;;;;;;;;5039142;28;20044;-82
2022/07/03 14:58:04;;;;;;;5.22;3.70;;;;;;;;;;5054665;28;20451;-81
2022/07/03 15:00:30;;;;;;;5.93;3.55;;;;;;;;;;5036274;28;20480;-80